createdAt,value
2022-08-31T00:03:00.358Z,74.65
2022-08-31T00:05:49.247Z,74.54
2022-08-31T00:08:32.510Z,74.62
2022-08-31T00:11:22.077Z,74.80
2022-08-31T00:14:14.982Z,75.23
2022-08-31T00:17:04.316Z,75.11
2022-08-31T00:19:46.523Z,74.80
2022-08-31T00:22:35.327Z,75.08
2022-08-31T00:25:18.387Z,75.03
2022-08-31T00:28:07.330Z,74.65
2022-08-31T00:30:50.439Z,74.94
2022-08-31T00:33:39.087Z,74.85
2022-08-31T00:36:22.706Z,75.28
2022-08-31T00:39:13.235Z,74.84
2022-08-31T00:41:55.520Z,74.89
2022-08-31T00:44:44.049Z,75.23
2022-08-31T00:47:26.321Z,75.10
2022-08-31T00:50:18.228Z,75.18
2022-08-31T00:53:07.280Z,75.59
2022-08-31T00:55:56.072Z,74.73
2022-08-31T00:58:39.391Z,75.03
2022-08-31T01:01:29.675Z,74.68
2022-08-31T01:04:12.616Z,74.89
2022-08-31T01:07:01.336Z,74.58
2022-08-31T01:09:55.723Z,74.53
2022-08-31T01:12:45.478Z,74.44
2022-08-31T01:15:36.234Z,74.10
2022-08-31T01:18:25.988Z,74.04
2022-08-31T01:21:20.630Z,74.26
2022-08-31T01:24:07.318Z,74.01
2022-08-31T01:26:55.880Z,74.48
2022-08-31T01:29:40.348Z,74.16
2022-08-31T01:32:29.348Z,74.74
2022-08-31T01:35:12.645Z,74.60
2022-08-31T01:38:01.993Z,74.55
2022-08-31T01:41:01.022Z,74.03
2022-08-31T01:43:50.420Z,74.10
2022-08-31T01:46:33.194Z,74.50
2022-08-31T01:49:17.657Z,73.79
2022-08-31T01:52:07.122Z,74.51
2022-08-31T01:54:49.426Z,73.85
2022-08-31T01:57:38.334Z,73.54
2022-08-31T02:00:41.161Z,73.22
2022-08-31T02:03:30.063Z,72.70
2022-08-31T02:06:21.001Z,72.94
2022-08-31T02:09:11.085Z,72.45
2022-08-31T02:12:00.628Z,73.17
2022-08-31T02:14:55.126Z,71.90
2022-08-31T02:17:52.681Z,70.10
2022-08-31T02:20:41.331Z,69.58
2022-08-31T02:23:25.366Z,69.36
2022-08-31T02:26:14.411Z,68.61
2022-08-31T02:28:56.615Z,68.05
2022-08-31T02:31:45.107Z,67.79
2022-08-31T02:34:34.981Z,68.15
2022-08-31T02:37:25.622Z,68.41
2022-08-31T02:40:16.015Z,68.54
2022-08-31T02:43:05.338Z,68.02
2022-08-31T02:45:50.990Z,67.86
2022-08-31T02:48:48.233Z,68.08
2022-08-31T02:51:37.242Z,68.78
2022-08-31T02:54:26.653Z,67.71
2022-08-31T02:57:09.967Z,66.63
2022-08-31T02:59:51.415Z,66.64
2022-08-31T03:02:42.055Z,66.87
2022-08-31T03:05:24.860Z,65.94
2022-08-31T03:08:13.076Z,66.28
2022-08-31T03:11:05.035Z,64.92
2022-08-31T03:13:58.423Z,64.27
2022-08-31T03:16:54.993Z,62.97
2022-08-31T03:19:50.222Z,64.02
2022-08-31T03:22:39.523Z,64.39
2022-08-31T03:25:25.063Z,64.44
2022-08-31T03:28:08.897Z,64.96
2022-08-31T03:31:12.379Z,63.55
2022-08-31T03:33:55.045Z,62.70
2022-08-31T03:36:43.983Z,62.75
2022-08-31T03:39:40.356Z,61.58
2022-08-31T03:42:29.401Z,61.24
2022-08-31T03:45:19.635Z,61.17
2022-08-31T03:48:12.554Z,60.25
2022-08-31T03:50:55.602Z,60.61
2022-08-31T03:53:48.072Z,61.61
2022-08-31T03:56:30.404Z,59.91
2022-08-31T03:59:22.064Z,58.91
2022-08-31T04:02:46.640Z,59.23
2022-08-31T04:05:49.362Z,59.23
2022-08-31T04:08:37.445Z,58.31
2022-08-31T04:11:51.841Z,57.64
2022-08-31T04:14:58.983Z,58.64
2022-08-31T04:18:13.312Z,58.10
2022-08-31T04:21:03.380Z,57.86
2022-08-31T04:23:47.951Z,56.91
2022-08-31T04:26:40.324Z,55.76
2022-08-31T04:29:22.674Z,54.54
2022-08-31T04:32:11.065Z,54.11
2022-08-31T04:34:56.667Z,54.59
2022-08-31T04:37:49.239Z,53.53
2022-08-31T04:40:39.363Z,53.32
2022-08-31T04:43:24.130Z,52.33
2022-08-31T04:46:13.012Z,52.65
2022-08-31T04:49:01.620Z,52.20
2022-08-31T04:51:46.333Z,51.10
2022-08-31T04:54:34.605Z,49.93
2022-08-31T04:57:17.230Z,51.11
2022-08-31T05:00:09.344Z,49.12
2022-08-31T05:03:11.703Z,49.52
2022-08-31T05:06:01.248Z,49.80
2022-08-31T05:08:43.402Z,50.69
2022-08-31T05:11:33.251Z,48.29
2022-08-31T05:14:16.652Z,48.90
2022-08-31T05:17:15.342Z,48.91
2022-08-31T05:19:59.400Z,48.49
2022-08-31T05:22:48.071Z,49.17
2022-08-31T05:25:30.802Z,47.14
2022-08-31T05:28:19.292Z,47.18
2022-08-31T05:31:09.138Z,47.62
2022-08-31T05:34:00.075Z,45.90
2022-08-31T05:36:46.513Z,43.37
2022-08-31T05:39:35.235Z,44.35
2022-08-31T05:42:20.742Z,44.74
2022-08-31T05:45:10.063Z,44.79
2022-08-31T05:47:53.551Z,46.21
2022-08-31T05:50:42.136Z,46.42
2022-08-31T05:53:24.649Z,46.42
2022-08-31T05:56:19.187Z,45.40
2022-08-31T05:59:11.276Z,44.91
2022-08-31T06:01:53.586Z,45.65
2022-08-31T06:04:45.292Z,46.13
2022-08-31T06:07:35.351Z,45.77
2022-08-31T06:10:22.034Z,44.74
2022-08-31T06:13:06.193Z,44.54
2022-08-31T06:15:56.211Z,44.96
2022-08-31T06:18:39.727Z,46.47
2022-08-31T06:21:49.673Z,48.21
2022-08-31T06:24:48.074Z,47.67
2022-08-31T06:27:37.337Z,44.90
2022-08-31T06:30:23.163Z,48.25
2022-08-31T06:33:12.332Z,46.12
2022-08-31T06:36:06.332Z,45.85
2022-08-31T06:39:11.338Z,46.61
2022-08-31T06:41:59.382Z,47.28
2022-08-31T06:45:06.239Z,50.81
2022-08-31T06:48:08.071Z,48.25
2022-08-31T06:51:05.024Z,46.36
2022-08-31T06:53:56.236Z,47.93
2022-08-31T06:56:59.901Z,49.06
2022-08-31T07:00:15.013Z,49.98
2022-08-31T07:03:33.879Z,50.42
2022-08-31T07:06:29.278Z,50.86
2022-08-31T07:09:14.810Z,49.85
2022-08-31T07:12:05.365Z,51.43
2022-08-31T07:14:54.971Z,50.04
2022-08-31T07:17:38.125Z,47.90
2022-08-31T07:20:20.652Z,47.90
2022-08-31T07:23:15.191Z,49.20
2022-08-31T07:26:14.301Z,48.17
2022-08-31T07:29:04.113Z,46.61
2022-08-31T07:31:54.055Z,46.17
2022-08-31T07:34:39.450Z,46.64
2022-08-31T07:38:06.149Z,41.96
2022-08-31T07:41:08.211Z,44.53
2022-08-31T07:43:57.294Z,47.11
2022-08-31T07:46:46.390Z,47.57
2022-08-31T07:49:38.284Z,46.56
2022-08-31T07:52:41.272Z,45.47
2022-08-31T07:55:42.758Z,47.81
2022-08-31T07:58:48.264Z,47.33
2022-08-31T08:01:36.030Z,47.30
2022-08-31T08:04:33.389Z,45.69
2022-08-31T08:07:34.729Z,46.93
2022-08-31T08:10:35.667Z,47.91
2022-08-31T08:13:36.729Z,47.29
2022-08-31T08:16:35.313Z,47.61
2022-08-31T08:19:50.378Z,47.11
2022-08-31T08:22:51.599Z,46.14
2022-08-31T08:25:54.259Z,47.26
2022-08-31T08:28:57.427Z,45.27
2022-08-31T08:31:46.068Z,46.69
2022-08-31T08:34:35.870Z,45.45
2022-08-31T08:37:40.999Z,44.52
2022-08-31T08:40:43.451Z,46.25
2022-08-31T08:43:36.963Z,46.63
2022-08-31T08:47:37.691Z,45.24
2022-08-31T08:49:43.108Z,44.43
2022-08-31T08:52:38.604Z,45.23
2022-08-31T08:55:25.093Z,48.49
2022-08-31T08:58:18.094Z,49.21
2022-08-31T09:01:05.112Z,45.79
2022-08-31T09:04:29.225Z,46.86
2022-08-31T09:07:37.955Z,46.92
2022-08-31T09:10:40.327Z,46.55
2022-08-31T09:14:20.201Z,46.20
2022-08-31T09:17:31.969Z,47.90
2022-08-31T09:20:23.986Z,48.76
2022-08-31T09:23:19.072Z,49.11
2022-08-31T09:26:13.970Z,50.64
2022-08-31T09:29:36.104Z,50.64
2022-08-31T09:32:26.456Z,49.80
2022-08-31T09:35:48.225Z,50.64
2022-08-31T09:38:37.664Z,50.59
2022-08-31T09:41:50.550Z,51.72
2022-08-31T09:44:42.594Z,54.36
2022-08-31T09:48:03.072Z,52.38
2022-08-31T09:50:52.974Z,52.11
2022-08-31T09:54:01.098Z,51.61
2022-08-31T09:57:15.218Z,51.49
2022-08-31T10:00:04.091Z,52.02
2022-08-31T10:02:54.051Z,52.90
2022-08-31T10:05:46.624Z,51.89
2022-08-31T10:09:01.357Z,52.01
2022-08-31T10:11:48.367Z,51.51
2022-08-31T10:14:49.350Z,53.04
2022-08-31T10:17:52.622Z,51.19
2022-08-31T10:20:40.080Z,51.74
2022-08-31T10:24:02.445Z,52.94
2022-08-31T10:27:08.929Z,52.53
2022-08-31T10:30:04.080Z,52.15
2022-08-31T10:33:13.176Z,51.71
2022-08-31T10:36:06.356Z,51.46
2022-08-31T10:38:57.010Z,51.78
2022-08-31T10:41:44.999Z,52.09
2022-08-31T10:45:00.367Z,51.00
2022-08-31T10:47:50.223Z,52.58
2022-08-31T10:50:53.332Z,53.11
2022-08-31T10:53:53.692Z,52.23
2022-08-31T10:56:48.994Z,52.67
2022-08-31T11:00:02.520Z,52.18
2022-08-31T11:03:24.268Z,51.94
2022-08-31T11:06:35.970Z,52.03
2022-08-31T11:09:26.622Z,53.20
2022-08-31T11:12:19.216Z,52.43
2022-08-31T11:15:14.110Z,50.97
2022-08-31T11:18:21.239Z,52.37
2022-08-31T11:21:28.293Z,51.46
2022-08-31T11:24:37.522Z,51.63
2022-08-31T11:27:41.085Z,53.12
2022-08-31T11:30:45.255Z,53.01
2022-08-31T11:33:44.396Z,50.69
2022-08-31T11:37:01.149Z,49.06
2022-08-31T11:39:53.347Z,48.84
2022-08-31T11:42:38.763Z,49.56
2022-08-31T11:45:45.283Z,48.11
2022-08-31T11:48:58.293Z,47.14
2022-08-31T11:51:50.320Z,45.06
2022-08-31T11:54:49.584Z,47.64
2022-08-31T11:58:03.811Z,46.26
2022-08-31T12:01:06.049Z,48.58
2022-08-31T12:04:04.062Z,47.04
2022-08-31T12:06:55.220Z,45.91
2022-08-31T12:09:47.062Z,49.21
2022-08-31T12:13:27.320Z,49.15
2022-08-31T12:16:35.218Z,51.35
2022-08-31T12:19:51.054Z,54.42
2022-08-31T12:23:30.248Z,55.62
2022-08-31T12:27:07.232Z,56.75
2022-08-31T12:30:06.176Z,58.66
2022-08-31T12:33:06.074Z,57.54
2022-08-31T12:35:50.392Z,58.47
2022-08-31T12:38:38.972Z,58.93
2022-08-31T12:41:25.334Z,58.45
2022-08-31T12:44:14.962Z,59.96
2022-08-31T12:47:13.594Z,59.00
2022-08-31T12:50:20.067Z,59.73
2022-08-31T12:53:20.348Z,60.13
2022-08-31T12:56:29.997Z,59.31
2022-08-31T12:59:21.646Z,61.59
2022-08-31T13:02:11.154Z,61.09
2022-08-31T13:04:55.375Z,59.82
2022-08-31T13:07:44.007Z,61.35
2022-08-31T13:10:52.323Z,61.13
2022-08-31T13:13:34.450Z,61.66
2022-08-31T13:16:24.318Z,61.96
2022-08-31T13:19:15.967Z,62.58
2022-08-31T13:22:09.274Z,63.18
2022-08-31T13:24:54.331Z,62.58
2022-08-31T13:27:46.366Z,62.56
2022-08-31T13:30:55.192Z,63.60
2022-08-31T13:33:55.989Z,65.44
2022-08-31T13:36:55.977Z,64.92
2022-08-31T13:39:55.158Z,63.52
2022-08-31T13:42:56.599Z,62.75
2022-08-31T13:45:51.177Z,62.95
2022-08-31T13:48:48.066Z,59.88
2022-08-31T13:54:50.360Z,57.98
2022-08-31T13:57:41.465Z,57.64
2022-08-31T14:00:43.325Z,57.02
2022-08-31T14:04:00.909Z,56.05
2022-08-31T14:06:45.064Z,57.29
2022-08-31T14:09:33.968Z,58.24
2022-08-31T14:12:22.951Z,55.58
2022-08-31T14:15:36.545Z,55.48
2022-08-31T14:18:34.102Z,57.04
2022-08-31T14:21:29.240Z,57.21
2022-08-31T14:24:14.165Z,55.47
2022-08-31T14:27:03.233Z,56.17
2022-08-31T14:29:45.540Z,56.43
2022-08-31T14:32:36.231Z,56.56
2022-08-31T14:35:25.107Z,55.69
2022-08-31T14:38:13.950Z,57.73
2022-08-31T14:41:03.031Z,58.32
2022-08-31T14:43:47.462Z,57.59
2022-08-31T14:46:37.997Z,58.88
2022-08-31T14:49:20.298Z,59.50
2022-08-31T14:52:11.979Z,59.20
2022-08-31T14:55:10.159Z,60.52
2022-08-31T14:58:13.073Z,60.03
2022-08-31T15:01:14.026Z,61.21
2022-08-31T15:04:05.183Z,61.79
2022-08-31T15:06:48.298Z,62.54
2022-08-31T15:09:30.665Z,62.63
2022-08-31T15:12:20.100Z,63.40
2022-08-31T15:15:12.299Z,64.25
2022-08-31T15:17:58.070Z,64.45
2022-08-31T15:20:50.085Z,62.68
2022-08-31T15:23:42.635Z,64.47
2022-08-31T15:26:31.313Z,66.06
2022-08-31T15:29:16.485Z,64.12
2022-08-31T15:32:06.003Z,64.94
2022-08-31T15:34:54.033Z,64.08
2022-08-31T15:37:43.111Z,64.65
2022-08-31T15:40:28.976Z,64.05
2022-08-31T15:43:23.278Z,64.64
2022-08-31T15:46:05.481Z,62.83
2022-08-31T15:48:54.036Z,64.20
2022-08-31T15:51:43.143Z,64.22
2022-08-31T15:54:29.071Z,64.28
2022-08-31T15:57:20.079Z,64.13
2022-08-31T16:00:15.061Z,65.54
2022-08-31T16:03:05.040Z,66.37
2022-08-31T16:05:47.308Z,65.82
2022-08-31T16:08:35.958Z,67.26
2022-08-31T16:11:19.339Z,64.70
2022-08-31T16:14:08.026Z,64.79
2022-08-31T16:16:53.489Z,63.23
2022-08-31T16:19:49.066Z,59.51
2022-08-31T16:22:43.877Z,63.25
2022-08-31T16:25:48.472Z,60.66
2022-08-31T16:28:38.035Z,60.66
2022-08-31T16:31:20.308Z,60.22
2022-08-31T16:34:09.013Z,59.94
2022-08-31T16:36:51.503Z,60.63
2022-08-31T16:39:40.051Z,61.06
2022-08-31T16:43:13.075Z,61.52
2022-08-31T16:45:56.297Z,60.83
2022-08-31T16:49:03.056Z,61.40
2022-08-31T16:51:48.526Z,61.76
2022-08-31T16:54:37.252Z,62.10
2022-08-31T16:57:26.270Z,60.86
2022-08-31T17:00:10.997Z,60.73
2022-08-31T17:02:59.992Z,61.25
2022-08-31T17:05:43.630Z,60.60
2022-08-31T17:08:32.071Z,60.45
2022-08-31T17:11:27.287Z,59.57
2022-08-31T17:14:12.036Z,59.01
2022-08-31T17:16:54.367Z,59.68
2022-08-31T17:19:43.058Z,59.55
2022-08-31T17:22:33.601Z,59.62
2022-08-31T17:25:15.385Z,58.67
2022-08-31T17:28:07.571Z,59.18
2022-08-31T17:30:49.372Z,59.39
2022-08-31T17:33:39.000Z,59.75
2022-08-31T17:36:28.061Z,59.49
2022-08-31T17:39:11.771Z,60.63
2022-08-31T17:42:02.056Z,60.68
2022-08-31T17:44:52.896Z,59.68
2022-08-31T17:47:34.978Z,59.82
2022-08-31T17:50:30.069Z,59.66
2022-08-31T17:53:12.230Z,60.68
2022-08-31T17:56:11.080Z,60.64
2022-08-31T17:58:56.169Z,60.85
2022-08-31T18:01:45.028Z,60.63
2022-08-31T18:04:35.736Z,59.42
2022-08-31T18:07:18.981Z,60.24
2022-08-31T18:10:08.061Z,60.12
2022-08-31T18:12:50.387Z,59.82
2022-08-31T18:15:39.073Z,60.02
2022-08-31T18:18:22.723Z,60.25
2022-08-31T18:21:15.103Z,60.10
2022-08-31T18:23:59.417Z,61.17
2022-08-31T18:26:57.069Z,60.39
2022-08-31T18:29:53.845Z,60.75
2022-08-31T18:32:47.337Z,61.41
2022-08-31T18:35:38.109Z,61.22
2022-08-31T18:38:20.428Z,61.64
2022-08-31T18:41:26.948Z,61.81
2022-08-31T18:44:34.448Z,62.11
2022-08-31T18:47:19.956Z,61.68
2022-08-31T18:50:09.532Z,61.76
2022-08-31T18:52:52.098Z,61.40
2022-08-31T18:55:34.550Z,61.71
2022-08-31T18:58:23.074Z,62.32
2022-08-31T19:01:14.047Z,62.22
2022-08-31T19:03:57.037Z,62.24
2022-08-31T19:06:47.632Z,61.88
2022-08-31T19:09:31.034Z,61.82
2022-08-31T19:12:24.636Z,62.06
2022-08-31T19:15:06.676Z,62.07
2022-08-31T19:17:56.939Z,62.33
2022-08-31T19:20:39.478Z,62.30
2022-08-31T19:23:28.254Z,62.71
2022-08-31T19:26:10.422Z,62.05
2022-08-31T19:29:04.946Z,62.47
2022-08-31T19:31:57.124Z,62.58
2022-08-31T19:34:51.029Z,62.65
2022-08-31T19:37:33.231Z,62.78
2022-08-31T19:40:25.303Z,62.39
2022-08-31T19:46:37.967Z,62.90
2022-08-31T19:49:27.036Z,63.05
2022-08-31T19:52:20.239Z,62.98
2022-08-31T19:55:09.721Z,62.84
2022-08-31T19:57:50.950Z,63.32
2022-08-31T20:00:39.402Z,63.18
2022-08-31T20:03:22.026Z,62.96
2022-08-31T20:06:14.311Z,62.70
2022-08-31T20:08:57.932Z,62.96
2022-08-31T20:11:48.292Z,63.15
2022-08-31T20:14:30.998Z,64.00
2022-08-31T20:17:20.884Z,63.97
2022-08-31T20:20:02.957Z,64.40
2022-08-31T20:22:54.817Z,64.65
2022-08-31T20:25:36.722Z,64.55
2022-08-31T20:28:35.898Z,64.77
2022-08-31T20:31:30.022Z,64.81
2022-08-31T20:34:20.411Z,65.33
2022-08-31T20:37:06.641Z,65.08
2022-08-31T20:39:54.335Z,65.63
2022-08-31T20:42:35.940Z,65.63
2022-08-31T20:45:25.314Z,65.04
2022-08-31T20:48:26.277Z,65.19
2022-08-31T20:51:21.122Z,65.50
2022-08-31T20:54:03.950Z,65.28
2022-08-31T20:56:53.545Z,65.85
2022-08-31T20:59:36.289Z,65.79
2022-08-31T21:02:20.433Z,65.84
2022-08-31T21:05:36.467Z,65.80
2022-08-31T21:08:19.203Z,66.23
2022-08-31T21:11:01.308Z,66.31
2022-08-31T21:13:51.952Z,66.83
2022-08-31T21:16:35.532Z,66.67
2022-08-31T21:19:29.948Z,66.32
2022-08-31T21:22:14.443Z,66.75
2022-08-31T21:25:08.198Z,66.98
2022-08-31T21:27:53.949Z,66.99
2022-08-31T21:30:49.730Z,66.90
2022-08-31T21:33:32.300Z,66.99
2022-08-31T21:36:36.939Z,66.61
2022-08-31T21:39:28.333Z,66.91
2022-08-31T21:42:11.224Z,67.11
2022-08-31T21:44:59.386Z,67.28
2022-08-31T21:47:42.272Z,67.30
2022-08-31T21:50:30.343Z,67.08
2022-08-31T21:53:12.328Z,66.86
2022-08-31T21:55:54.930Z,67.43
2022-08-31T21:58:44.029Z,67.30
2022-08-31T22:01:34.395Z,67.51
2022-08-31T22:04:18.036Z,67.85
2022-08-31T22:07:00.968Z,67.18
2022-08-31T22:09:50.991Z,66.98
2022-08-31T22:12:40.284Z,67.38
2022-08-31T22:15:30.965Z,67.17
2022-08-31T22:18:59.237Z,67.04
2022-08-31T22:21:27.601Z,67.14
2022-08-31T22:24:27.053Z,66.99
2022-08-31T22:27:14.889Z,66.78
2022-08-31T22:30:04.285Z,67.18
2022-08-31T22:32:58.917Z,67.26
2022-08-31T22:35:48.039Z,66.98
2022-08-31T22:38:30.311Z,67.09
2022-08-31T22:41:20.357Z,67.11
2022-08-31T22:44:10.158Z,67.41
2022-08-31T22:46:59.458Z,67.19
2022-08-31T22:49:41.527Z,67.65
2022-08-31T22:52:30.269Z,67.05
2022-08-31T22:55:21.301Z,67.29
2022-08-31T22:58:10.315Z,66.60
2022-08-31T23:00:55.294Z,66.77
2022-08-31T23:03:44.316Z,66.39
2022-08-31T23:06:28.433Z,66.20
2022-08-31T23:09:19.026Z,66.66
2022-08-31T23:12:03.368Z,66.41
2022-08-31T23:14:52.062Z,66.49
2022-08-31T23:17:41.023Z,66.46
2022-08-31T23:20:24.970Z,67.05
2022-08-31T23:23:14.066Z,67.15
2022-08-31T23:26:09.781Z,67.13
2022-08-31T23:28:54.272Z,67.22
2022-08-31T23:31:52.254Z,67.20
2022-08-31T23:34:40.454Z,66.85
2022-08-31T23:37:23.362Z,67.13
2022-08-31T23:40:16.767Z,67.23
2022-08-31T23:42:58.291Z,66.82
2022-08-31T23:45:46.493Z,66.67
2022-08-31T23:48:30.290Z,66.87
2022-08-31T23:51:19.665Z,66.20
2022-08-31T23:54:05.279Z,65.98
2022-08-31T23:56:49.116Z,65.74
2022-08-31T23:59:39.290Z,65.60
